Time;durP1;ratioP1;P1;durP2;ratioP2;P2;SDS_P1;SDS_P2;PMS_P1;PMS_P2;Temp;Humidity;BMP_temperature;BMP_pressure;BME280_temperature;BME280_humidity;BME280_pressure;Samples;Min_cycle;Max_cycle;Signal;HPM_P1;HPM_P2
2022/11/28 00:00:28;;;;;;;;;;;;;;;8.38;100.00;98604.53;4963292;28;19918;-58
2022/11/28 00:02:53;;;;;;;;;;;;;;;8.27;100.00;98609.97;4964952;28;19918;-58
2022/11/28 00:05:18;;;;;;;;;;;;;;;8.43;100.00;98607.00;4965133;28;19921;-58
2022/11/28 00:07:44;;;;;;;;;;;;;;;7.95;100.00;98598.06;4968972;28;19922;-58
2022/11/28 00:10:09;;;;;;;;;;;;;;;8.18;100.00;98595.69;4968944;28;19924;-58
2022/11/28 00:12:35;;;;;;;;;;;;;;;8.38;100.00;98591.69;4962081;28;19922;-57
2022/11/28 00:15:00;;;;;;;;;;;;;;;8.17;100.00;98582.91;4968835;28;19939;-59
2022/11/28 00:17:25;;;;;;;;;;;;;;;8.00;100.00;98587.69;4961884;28;19926;-57
2022/11/28 00:19:50;;;;;;;;;;;;;;;8.42;100.00;98593.34;4971294;28;19918;-58
2022/11/28 00:22:16;;;;;;;;;;;;;;;8.31;100.00;98592.78;4964889;28;19925;-58
2022/11/28 00:24:41;;;;;;;;;;;;;;;8.16;100.00;98586.34;4965170;28;19929;-58
2022/11/28 00:27:06;;;;;;;;;;;;;;;8.14;100.00;98582.97;4965179;28;19918;-57
2022/11/28 00:29:31;;;;;;;;;;;;;;;7.88;100.00;98574.31;4971684;28;19918;-58
2022/11/28 00:31:56;;;;;;;;;;;;;;;7.87;100.00;98571.81;4972405;28;19991;-59
2022/11/28 00:34:22;;;;;;;;;;;;;;;8.18;100.00;98548.66;4965204;28;20037;-59
2022/11/28 00:36:47;;;;;;;;;;;;;;;8.31;100.00;98546.59;4965480;28;20004;-59
2022/11/28 00:39:13;;;;;;;;;;;;;;;8.31;100.00;98529.47;4966336;28;20513;-59
2022/11/28 00:41:38;;;;;;;;;;;;;;;8.07;100.00;98532.75;4963767;28;20768;-59
2022/11/28 00:44:03;;;;;;;;;;;;;;;8.41;100.00;98529.22;4969227;28;19926;-56
2022/11/28 00:46:28;;;;;;;;;;;;;;;8.23;100.00;98535.72;4963749;28;19924;-56
2022/11/28 00:48:54;;;;;;;;;;;;;;;8.43;100.00;98532.59;4971362;28;19922;-59
2022/11/28 00:51:26;;;;;;;;;;;;;;;8.26;100.00;98526.22;4964717;28;19926;-59
2022/11/28 00:53:52;;;;;;;;;;;;;;;8.18;100.00;98518.72;4965098;28;19919;-59
2022/11/28 00:56:18;;;;;;;;;;;;;;;8.13;100.00;98512.06;4964786;28;19964;-59
2022/11/28 00:58:44;;;;;;;;;;;;;;;8.18;100.00;98523.03;4962038;28;20016;-58
2022/11/28 01:01:13;;;;;;;;;;;;;;;8.32;100.00;98502.91;4967271;28;20062;-56
2022/11/28 01:03:39;;;;;;;;;;;;;;;8.46;100.00;98507.69;4959322;28;20014;-56
2022/11/28 01:06:05;;;;;;;;;;;;;;;8.34;100.00;98498.56;4969716;28;20036;-59
2022/11/28 01:08:30;;;;;;;;;;;;;;;8.71;100.00;98506.88;4958387;28;19999;-58
2022/11/28 01:10:55;;;;;;;;;;;;;;;8.52;100.00;98511.75;4963320;28;19918;-58
2022/11/28 01:13:20;;;;;;;;;;;;;;;8.52;100.00;98497.19;4960939;28;19926;-58
2022/11/28 01:15:45;;;;;;;;;;;;;;;8.10;100.00;98495.06;4962202;28;20152;-59
2022/11/28 01:18:11;;;;;;;;;;;;;;;8.14;100.00;98500.91;4966366;28;19918;-58
2022/11/28 01:20:36;;;;;;;;;;;;;;;8.53;100.00;98503.16;4962967;28;20012;-58
2022/11/28 01:23:01;;;;;;;;;;;;;;;8.50;100.00;98503.28;4958325;28;20056;-58
2022/11/28 01:25:26;;;;;;;;;;;;;;;8.41;100.00;98501.00;4966788;28;20016;-58
2022/11/28 01:27:52;;;;;;;;;;;;;;;8.43;100.00;98496.66;4963433;28;19971;-58
2022/11/28 01:30:17;;;;;;;;;;;;;;;8.28;100.00;98498.78;4968693;28;19918;-59
2022/11/28 01:32:42;;;;;;;;;;;;;;;8.35;100.00;98500.28;4962267;28;20391;-58
2022/11/28 01:35:08;;;;;;;;;;;;;;;8.43;100.00;98499.22;4960649;28;19926;-58
2022/11/28 01:37:33;;;;;;;;;;;;;;;8.14;100.00;98485.53;4965647;28;19928;-58
2022/11/28 01:39:58;;;;;;;;;;;;;;;8.31;100.00;98480.72;4968085;28;19926;-58
2022/11/28 01:42:23;;;;;;;;;;;;;;;8.53;100.00;98482.63;4966633;28;20365;-58
2022/11/28 01:44:48;;;;;;;;;;;;;;;8.36;100.00;98471.16;4960583;28;20331;-58
2022/11/28 01:47:14;;;;;;;;;;;;;;;8.67;100.00;98459.94;4965165;28;20021;-56
2022/11/28 01:49:39;;;;;;;;;;;;;;;8.54;100.00;98459.50;4962322;28;20318;-56
2022/11/28 01:52:07;;;;;;;;;;;;;;;8.42;100.00;98459.06;4940392;28;19922;-57
2022/11/28 01:54:32;;;;;;;;;;;;;;;8.85;100.00;98447.38;4962094;28;19967;-56
2022/11/28 01:56:58;;;;;;;;;;;;;;;8.48;100.00;98448.59;4961574;28;19930;-56
2022/11/28 01:59:25;;;;;;;;;;;;;;;8.36;100.00;98455.75;4962573;28;19922;-56
2022/11/28 02:01:50;;;;;;;;;;;;;;;8.42;100.00;98453.94;4964876;28;19953;-56
2022/11/28 02:04:16;;;;;;;;;;;;;;;8.72;100.00;98452.91;4962487;28;20855;-55
2022/11/28 02:06:41;;;;;;;;;;;;;;;8.90;100.00;98445.50;4966212;28;19922;-56
2022/11/28 02:09:14;;;;;;;;;;;;;;;8.61;100.00;98442.16;4960932;28;19929;-55
2022/11/28 02:11:43;;;;;;;;;;;;;;;8.49;100.00;98456.25;4965289;28;20290;-56
2022/11/28 02:14:11;;;;;;;;;;;;;;;8.04;100.00;98454.19;4965940;28;19928;-55
2022/11/28 02:16:54;;;;;;;;;;;;;;;8.24;100.00;98445.91;4964203;28;20388;-55
2022/11/28 02:19:22;;;;;;;;;;;;;;;8.56;100.00;98452.59;4959039;28;19929;-55
2022/11/28 02:21:47;;;;;;;;;;;;;;;8.15;100.00;98448.75;4964257;28;19922;-56
2022/11/28 02:24:19;;;;;;;;;;;;;;;8.19;100.00;98455.47;4960160;28;19932;-55
2022/11/28 02:27:02;;;;;;;;;;;;;;;8.44;100.00;98454.69;4969355;28;19922;-55
2022/11/28 02:29:33;;;;;;;;;;;;;;;8.32;100.00;98443.06;4962561;28;19922;-56
2022/11/28 02:32:01;;;;;;;;;;;;;;;8.40;100.00;98443.72;4961829;28;19926;-55
2022/11/28 02:34:32;;;;;;;;;;;;;;;8.42;100.00;98446.25;4967867;28;20296;-57
2022/11/28 02:37:07;;;;;;;;;;;;;;;8.37;100.00;98442.06;4960827;28;20304;-57
2022/11/28 02:39:50;;;;;;;;;;;;;;;8.23;100.00;98453.63;4961897;28;19922;-57
2022/11/28 02:42:23;;;;;;;;;;;;;;;8.07;100.00;98450.69;4961306;28;19969;-57
2022/11/28 02:44:55;;;;;;;;;;;;;;;8.33;100.00;98466.13;4963526;28;20021;-58
2022/11/28 02:47:25;;;;;;;;;;;;;;;8.22;100.00;98449.41;4962827;28;19917;-57
2022/11/28 02:49:57;;;;;;;;;;;;;;;8.12;100.00;98448.84;4960428;28;19918;-57
2022/11/28 02:52:25;;;;;;;;;;;;;;;8.46;100.00;98446.09;4962263;28;19914;-57
2022/11/28 02:54:50;;;;;;;;;;;;;;;7.94;100.00;98440.00;4968556;28;19940;-57
2022/11/28 02:57:15;;;;;;;;;;;;;;;8.16;100.00;98429.91;4964507;28;20395;-58
2022/11/28 02:59:40;;;;;;;;;;;;;;;8.20;100.00;98431.47;4961721;28;20292;-57
2022/11/28 03:02:27;;;;;;;;;;;;;;;8.26;100.00;98426.16;4971071;28;20695;-57
2022/11/28 03:05:11;;;;;;;;;;;;;;;8.09;100.00;98423.28;4963868;28;20650;-58
2022/11/28 03:07:42;;;;;;;;;;;;;;;8.18;100.00;98415.31;4960994;28;19929;-57
2022/11/28 03:10:11;;;;;;;;;;;;;;;8.16;100.00;98415.38;4964636;28;19918;-57
2022/11/28 03:12:46;;;;;;;;;;;;;;;8.31;100.00;98411.47;4962471;28;19922;-57
2022/11/28 03:15:12;;;;;;;;;;;;;;;7.85;100.00;98412.91;4961410;28;20020;-57
2022/11/28 03:17:40;;;;;;;;;;;;;;;8.24;100.00;98407.41;4966919;28;19929;-57
2022/11/28 03:20:21;;;;;;;;;;;;;;;8.24;100.00;98399.72;4961509;28;20029;-57
2022/11/28 03:23:04;;;;;;;;;;;;;;;8.25;100.00;98401.38;4966174;28;19988;-57
2022/11/28 03:25:33;;;;;;;;;;;;;;;8.40;100.00;98400.09;4963373;28;19963;-57
2022/11/28 03:28:01;;;;;;;;;;;;;;;8.28;100.00;98414.13;4966696;28;20036;-58
2022/11/28 03:30:31;;;;;;;;;;;;;;;8.18;100.00;98415.31;4961674;28;19929;-58
2022/11/28 03:32:57;;;;;;;;;;;;;;;8.26;100.00;98400.50;4961099;28;19922;-58
2022/11/28 03:35:23;;;;;;;;;;;;;;;8.47;100.00;98401.56;4972095;28;19983;-58
2022/11/28 03:37:50;;;;;;;;;;;;;;;8.40;100.00;98415.50;4970212;28;19975;-58
2022/11/28 03:40:19;;;;;;;;;;;;;;;8.30;100.00;98408.94;4965126;28;20299;-59
2022/11/28 03:42:47;;;;;;;;;;;;;;;8.11;100.00;98395.88;4962174;28;20291;-58
2022/11/28 03:45:19;;;;;;;;;;;;;;;8.42;100.00;98423.16;4972606;28;19926;-58
2022/11/28 03:47:46;;;;;;;;;;;;;;;8.22;100.00;98408.34;4964405;28;19922;-58
2022/11/28 03:50:16;;;;;;;;;;;;;;;8.49;100.00;98411.78;4964280;28;19924;-58
2022/11/28 03:52:52;;;;;;;;;;;;;;;8.09;100.00;98433.53;4963664;28;19915;-58
2022/11/28 03:55:17;;;;;;;;;;;;;;;8.37;100.00;98436.94;4969121;28;19918;-58
2022/11/28 03:58:12;;;;;;;;;;;;;;;8.07;100.00;98419.91;4963305;28;19929;-58
2022/11/28 04:00:37;;;;;;;;;;;;;;;8.25;100.00;98419.34;4989034;28;19918;-58
2022/11/28 04:03:02;;;;;;;;;;;;;;;7.91;100.00;98412.72;4965146;28;19963;-58
2022/11/28 04:05:30;;;;;;;;;;;;;;;8.16;100.00;98406.81;4966755;28;19922;-58
2022/11/28 04:08:22;;;;;;;;;;;;;;;7.88;100.00;98412.81;4973597;28;19928;-58
2022/11/28 04:10:56;;;;;;;;;;;;;;;8.55;100.00;98403.88;4971850;28;21096;-58
2022/11/28 04:13:30;;;;;;;;;;;;;;;7.86;100.00;98401.75;4966783;28;19922;-58
2022/11/28 04:16:10;;;;;;;;;;;;;;;8.25;100.00;98406.50;4969458;28;19922;-58
2022/11/28 04:18:44;;;;;;;;;;;;;;;8.42;100.00;98395.75;4960905;28;19925;-58
2022/11/28 04:21:11;;;;;;;;;;;;;;;8.25;100.00;98396.25;4970328;28;19964;-57
2022/11/28 04:23:36;;;;;;;;;;;;;;;8.70;100.00;98395.66;4965420;28;19922;-58
2022/11/28 04:26:04;;;;;;;;;;;;;;;8.45;100.00;98392.25;4960967;28;19948;-57
2022/11/28 04:28:30;;;;;;;;;;;;;;;8.32;100.00;98387.47;4966460;28;19921;-57
2022/11/28 04:30:58;;;;;;;;;;;;;;;8.37;100.00;98383.03;4968506;28;19921;-57
2022/11/28 04:33:23;;;;;;;;;;;;;;;8.50;100.00;98385.22;4967731;28;19925;-58
2022/11/28 04:35:50;;;;;;;;;;;;;;;8.55;100.00;98375.63;4966767;28;19918;-58
2022/11/28 04:38:15;;;;;;;;;;;;;;;8.52;100.00;98388.59;4967163;28;19933;-57
2022/11/28 04:40:43;;;;;;;;;;;;;;;8.53;100.00;98391.09;4964622;28;20424;-58
2022/11/28 04:43:10;;;;;;;;;;;;;;;8.21;100.00;98393.84;4968022;28;19965;-58
2022/11/28 04:45:39;;;;;;;;;;;;;;;8.23;100.00;98400.59;4967082;28;19926;-58
2022/11/28 04:48:04;;;;;;;;;;;;;;;8.05;100.00;98399.47;4970762;28;20692;-58
2022/11/28 04:50:31;;;;;;;;;;;;;;;7.96;100.00;98390.34;4971212;28;19960;-57
2022/11/28 04:52:56;;;;;;;;;;;;;;;7.96;100.00;98380.09;4964622;28;19918;-58
2022/11/28 04:55:24;;;;;;;;;;;;;;;7.89;100.00;98388.84;4964615;28;20525;-58
2022/11/28 04:57:53;;;;;;;;;;;;;;;8.29;100.00;98374.75;4963710;28;19922;-57
2022/11/28 05:00:20;;;;;;;;;;;;;;;7.80;100.00;98383.16;4969840;28;19975;-57
2022/11/28 05:02:46;;;;;;;;;;;;;;;8.05;100.00;98384.09;4963441;28;20847;-57
2022/11/28 05:05:15;;;;;;;;;;;;;;;8.27;100.00;98373.13;4964461;28;19926;-57
2022/11/28 05:07:41;;;;;;;;;;;;;;;8.04;100.00;98379.84;4970937;28;20306;-57
2022/11/28 05:10:06;;;;;;;;;;;;;;;8.16;100.00;98381.16;4966416;28;19921;-58
2022/11/28 05:12:31;;;;;;;;;;;;;;;8.05;100.00;98360.16;4966791;28;19937;-57
2022/11/28 05:14:57;;;;;;;;;;;;;;;8.31;100.00;98375.53;4964742;28;19937;-57
2022/11/28 05:17:22;;;;;;;;;;;;;;;8.09;100.00;98379.69;4971902;28;19922;-57
2022/11/28 05:19:47;;;;;;;;;;;;;;;7.81;100.00;98380.56;4968017;28;19922;-57
2022/11/28 05:22:12;;;;;;;;;;;;;;;7.87;100.00;98389.81;4959849;28;19930;-60
2022/11/28 05:24:37;;;;;;;;;;;;;;;8.06;100.00;98395.19;4965146;28;19926;-58
2022/11/28 05:27:03;;;;;;;;;;;;;;;7.92;100.00;98393.06;4962159;28;19925;-57
2022/11/28 05:29:28;;;;;;;;;;;;;;;8.64;100.00;98403.56;4959768;28;19922;-57
2022/11/28 05:31:53;;;;;;;;;;;;;;;7.98;100.00;98403.09;4959763;28;19957;-57
2022/11/28 05:34:18;;;;;;;;;;;;;;;8.02;100.00;98402.13;4969350;28;19964;-57
2022/11/28 05:36:44;;;;;;;;;;;;;;;7.69;100.00;98406.56;4966835;28;19918;-57
2022/11/28 05:39:09;;;;;;;;;;;;;;;7.83;100.00;98408.72;4963251;28;20005;-58
2022/11/28 05:41:34;;;;;;;;;;;;;;;7.89;100.00;98398.25;4962508;28;20004;-57
2022/11/28 05:44:00;;;;;;;;;;;;;;;7.96;100.00;98380.09;4968192;28;19936;-57
2022/11/28 05:46:25;;;;;;;;;;;;;;;8.13;100.00;98386.41;4961765;28;20040;-57
2022/11/28 05:48:51;;;;;;;;;;;;;;;8.16;100.00;98381.16;4966931;28;19918;-57
2022/11/28 05:51:16;;;;;;;;;;;;;;;8.14;100.00;98378.66;4963253;28;19968;-58
2022/11/28 05:53:41;;;;;;;;;;;;;;;8.05;100.00;98378.09;4960321;28;19953;-57
2022/11/28 05:56:07;;;;;;;;;;;;;;;7.95;100.00;98387.81;4965523;28;20008;-57
2022/11/28 05:58:32;;;;;;;;;;;;;;;8.00;100.00;98397.94;4965697;28;19922;-58
2022/11/28 06:00:58;;;;;;;;;;;;;;;8.04;100.00;98396.94;4968693;28;19925;-57
2022/11/28 06:03:23;;;;;;;;;;;;;;;8.21;100.00;98389.56;4960807;28;20029;-57
2022/11/28 06:05:48;;;;;;;;;;;;;;;8.00;100.00;98375.69;4962056;28;20016;-58
2022/11/28 06:08:13;;;;;;;;;;;;;;;8.13;100.00;98387.22;4961039;28;20046;-57
2022/11/28 06:10:39;;;;;;;;;;;;;;;8.35;100.00;98382.25;4963598;28;19922;-57
2022/11/28 06:13:04;;;;;;;;;;;;;;;8.44;100.00;98370.88;4962862;28;19922;-58
2022/11/28 06:15:30;;;;;;;;;;;;;;;8.27;100.00;98373.13;4966818;28;19941;-58
2022/11/28 06:17:55;;;;;;;;;;;;;;;8.25;100.00;98360.34;4964462;28;20338;-57
2022/11/28 06:20:20;;;;;;;;;;;;;;;8.01;100.00;98366.28;4961995;28;19922;-57
2022/11/28 06:22:46;;;;;;;;;;;;;;;8.01;100.00;98361.16;4965641;28;19918;-58
2022/11/28 06:25:11;;;;;;;;;;;;;;;7.65;100.00;98371.66;4963812;28;19959;-57
2022/11/28 06:27:36;;;;;;;;;;;;;;;7.77;100.00;98384.09;4965697;28;19924;-58
2022/11/28 06:30:01;;;;;;;;;;;;;;;7.86;100.00;98390.66;4960630;28;19918;-58
2022/11/28 06:32:26;;;;;;;;;;;;;;;7.90;100.00;98400.78;4959046;28;19968;-58
2022/11/28 06:34:52;;;;;;;;;;;;;;;7.96;100.00;98392.06;4968562;28;19929;-58
2022/11/28 06:37:17;;;;;;;;;;;;;;;8.00;100.00;98408.19;4965444;28;19918;-58
2022/11/28 06:39:42;;;;;;;;;;;;;;;8.23;100.00;98410.03;4968978;28;19918;-57
2022/11/28 06:42:08;;;;;;;;;;;;;;;8.06;100.00;98418.25;4961893;28;19957;-57
2022/11/28 06:44:33;;;;;;;;;;;;;;;7.48;100.00;98423.38;4965428;28;20012;-57
2022/11/28 06:46:58;;;;;;;;;;;;;;;7.60;100.00;98422.22;4960989;28;20545;-57
2022/11/28 06:49:23;;;;;;;;;;;;;;;7.71;100.00;98435.56;4967789;28;19918;-57
2022/11/28 06:51:48;;;;;;;;;;;;;;;7.69;100.00;98437.31;4961846;28;19921;-57
2022/11/28 06:54:14;;;;;;;;;;;;;;;7.75;100.00;98432.00;4961195;28;20192;-58
2022/11/28 06:56:39;;;;;;;;;;;;;;;7.91;100.00;98437.50;4964674;28;20009;-58
2022/11/28 06:59:04;;;;;;;;;;;;;;;7.79;100.00;98443.84;4963263;28;20501;-57
2022/11/28 07:01:31;;;;;;;;;;;;;;;8.20;100.00;98448.59;4969439;28;20053;-57
2022/11/28 07:03:56;;;;;;;;;;;;;;;8.22;100.00;98439.97;4967499;28;19980;-58
2022/11/28 07:06:22;;;;;;;;;;;;;;;7.96;100.00;98436.50;4973017;28;20012;-57
2022/11/28 07:08:47;;;;;;;;;;;;;;;7.63;100.00;98425.50;4970861;28;19953;-58
2022/11/28 07:11:13;;;;;;;;;;;;;;;8.20;100.00;98426.34;4963426;28;19987;-58
2022/11/28 07:13:38;;;;;;;;;;;;;;;8.31;100.00;98424.28;4971544;28;20374;-57
2022/11/28 07:16:04;;;;;;;;;;;;;;;7.83;100.00;98424.94;4963965;28;19922;-57
2022/11/28 07:18:29;;;;;;;;;;;;;;;7.86;100.00;98424.00;4971009;28;20407;-57
2022/11/28 07:20:54;;;;;;;;;;;;;;;7.77;100.00;98434.53;4967322;28;19918;-58
2022/11/28 07:23:19;;;;;;;;;;;;;;;8.54;100.00;98427.88;4966330;28;20060;-58
2022/11/28 07:25:45;;;;;;;;;;;;;;;8.55;100.00;98424.41;4970541;28;19922;-58
2022/11/28 07:28:10;;;;;;;;;;;;;;;8.86;100.00;98428.53;4970611;28;19925;-58
2022/11/28 07:30:35;;;;;;;;;;;;;;;8.73;100.00;98413.50;4964750;28;19922;-57
2022/11/28 07:33:00;;;;;;;;;;;;;;;8.80;100.00;98414.13;4973781;28;19917;-57
2022/11/28 07:35:26;;;;;;;;;;;;;;;9.00;100.00;98410.88;4973315;28;19943;-58
2022/11/28 07:37:51;;;;;;;;;;;;;;;9.36;100.00;98418.19;4968976;28;20024;-57
2022/11/28 07:40:18;;;;;;;;;;;;;;;9.36;100.00;98408.75;4960923;28;19918;-57
2022/11/28 07:42:43;;;;;;;;;;;;;;;9.20;100.00;98413.59;4969282;28;19967;-57
2022/11/28 07:45:09;;;;;;;;;;;;;;;9.06;100.00;98415.81;4963156;28;20445;-57
2022/11/28 07:47:34;;;;;;;;;;;;;;;9.15;100.00;98407.78;4967465;28;19933;-57
2022/11/28 07:50:00;;;;;;;;;;;;;;;8.44;100.00;98416.22;4964325;28;19918;-57
2022/11/28 07:52:25;;;;;;;;;;;;;;;8.77;100.00;98417.66;4967380;28;19917;-57
2022/11/28 07:54:50;;;;;;;;;;;;;;;8.36;100.00;98419.00;4966900;28;19943;-57
2022/11/28 07:57:16;;;;;;;;;;;;;;;8.42;100.00;98423.16;4966944;28;19922;-57
2022/11/28 07:59:42;;;;;;;;;;;;;;;8.12;100.00;98426.59;4963778;28;19971;-57
2022/11/28 08:02:08;;;;;;;;;;;;;;;8.23;100.00;98428.81;4968996;28;20010;-57
2022/11/28 08:04:33;;;;;;;;;;;;;;;8.25;100.00;98437.28;4963610;28;20017;-57
2022/11/28 08:06:58;;;;;;;;;;;;;;;8.34;100.00;98442.13;4971124;28;19937;-57
2022/11/28 08:09:24;;;;;;;;;;;;;;;8.30;100.00;98449.97;4965317;28;19976;-57
2022/11/28 08:11:51;;;;;;;;;;;;;;;8.57;100.00;98432.88;4963388;28;19918;-58
2022/11/28 08:14:16;;;;;;;;;;;;;;;9.05;100.00;98426.97;4967870;28;20008;-57
2022/11/28 08:16:43;;;;;;;;;;;;;;;8.64;100.00;98420.69;4966583;28;19997;-57
2022/11/28 08:19:09;;;;;;;;;;;;;;;8.50;100.00;98432.25;4961983;28;19929;-57
2022/11/28 08:21:35;;;;;;;;;;;;;;;7.99;100.00;98435.56;4968376;28;19918;-57
2022/11/28 08:24:01;;;;;;;;;;;;;;;8.28;100.00;98449.19;4964328;28;20503;-57
2022/11/28 08:26:26;;;;;;;;;;;;;;;8.32;100.00;98438.78;4969113;28;19917;-57
2022/11/28 08:28:53;;;;;;;;;;;;;;;8.08;100.00;98454.97;4965791;28;19921;-57
2022/11/28 08:31:19;;;;;;;;;;;;;;;8.12;100.00;98451.41;4967552;28;19972;-57
2022/11/28 08:33:45;;;;;;;;;;;;;;;8.00;100.00;98456.91;4964700;28;19925;-57
2022/11/28 08:36:11;;;;;;;;;;;;;;;8.24;100.00;98456.16;4970158;28;19922;-57
2022/11/28 08:38:37;;;;;;;;;;;;;;;8.11;100.00;98452.28;4965111;28;20278;-57
2022/11/28 08:41:03;;;;;;;;;;;;;;;8.26;100.00;98456.94;4962677;28;19918;-57
2022/11/28 08:43:28;;;;;;;;;;;;;;;7.82;100.00;98454.00;4966924;28;20433;-57
2022/11/28 08:45:53;;;;;;;;;;;;;;;8.01;100.00;98454.31;4966111;28;19918;-57
2022/11/28 08:48:18;;;;;;;;;;;;;;;8.73;100.00;98452.03;4966258;28;19945;-56
2022/11/28 08:50:47;;;;;;;;;;;;;;;8.60;100.00;98443.06;4969208;28;19917;-57
2022/11/28 08:53:12;;;;;;;;;;;;;;;8.53;100.00;98449.28;4959524;28;19918;-57
2022/11/28 08:55:39;;;;;;;;;;;;;;;8.34;100.00;98449.00;4968892;28;19918;-57
2022/11/28 08:58:05;;;;;;;;;;;;;;;8.30;100.00;98450.84;4962777;28;19968;-57
2022/11/28 09:00:30;;;;;;;;;;;;;;;8.66;100.00;98444.59;4962936;28;19922;-57
2022/11/28 09:02:55;;;;;;;;;;;;;;;8.47;100.00;98437.50;4963921;28;19929;-57
2022/11/28 09:05:21;;;;;;;;;;;;;;;8.67;100.00;98425.75;4967049;28;19922;-56
2022/11/28 09:07:46;;;;;;;;;;;;;;;8.74;100.00;98420.34;4963443;28;19925;-57
2022/11/28 09:10:11;;;;;;;;;;;;;;;9.15;100.00;98419.81;4966817;28;19929;-57
2022/11/28 09:12:37;;;;;;;;;;;;;;;8.99;100.00;98410.06;4965417;28;19914;-56
2022/11/28 09:15:02;;;;;;;;;;;;;;;8.79;100.00;98413.31;4963675;28;19918;-56
2022/11/28 09:17:27;;;;;;;;;;;;;;;9.37;100.00;98415.56;4965645;28;19918;-57
2022/11/28 09:19:52;;;;;;;;;;;;;;;8.59;100.00;98419.09;4964318;28;20384;-56
2022/11/28 09:22:18;;;;;;;;;;;;;;;9.37;100.00;98419.84;4966271;28;20559;-56
2022/11/28 09:24:43;;;;;;;;;;;;;;;9.01;100.00;98428.00;4965449;28;19925;-56
2022/11/28 09:27:08;;;;;;;;;;;;;;;9.76;100.00;98434.69;4968289;28;19918;-56
2022/11/28 09:29:33;;;;;;;;;;;;;;;9.57;100.00;98427.66;4963311;28;19922;-56
2022/11/28 09:31:58;;;;;;;;;;;;;;;9.36;100.00;98423.31;4960978;28;19967;-56
2022/11/28 09:34:24;;;;;;;;;;;;;;;9.41;100.00;98432.53;4966849;28;19917;-57
2022/11/28 09:36:49;;;;;;;;;;;;;;;9.87;100.00;98422.25;4965160;28;20033;-58
2022/11/28 09:39:14;;;;;;;;;;;;;;;9.81;100.00;98430.22;4964791;28;19922;-58
2022/11/28 09:41:45;;;;;;;;;;;;;;;9.99;100.00;98423.50;4962503;28;19918;-58
2022/11/28 09:44:15;;;;;;;;;;;;;;;9.71;100.00;98428.88;4967326;28;19929;-57
2022/11/28 09:46:40;;;;;;;;;;;;;;;9.76;100.00;98439.84;4961250;28;19918;-58
2022/11/28 09:49:21;;;;;;;;;;;;;;;10.03;100.00;98438.81;4966619;28;19925;-58
2022/11/28 09:51:48;;;;;;;;;;;;;;;10.38;100.00;98439.16;4962442;28;20005;-57
2022/11/28 09:54:29;;;;;;;;;;;;;;;10.05;100.00;98433.56;4962535;28;20306;-58
2022/11/28 09:56:54;;;;;;;;;;;;;;;10.11;100.00;98453.94;4966982;28;20507;-58
2022/11/28 09:59:22;;;;;;;;;;;;;;;10.39;100.00;98443.41;4961587;28;19982;-57
2022/11/28 10:01:47;;;;;;;;;;;;;;;9.96;100.00;98439.06;4961261;28;19921;-58
2022/11/28 10:04:17;;;;;;;;;;;;;;;10.15;100.00;98444.34;4964570;28;19925;-58
2022/11/28 10:06:52;;;;;;;;;;;;;;;10.82;100.00;98439.06;4960906;28;19918;-58
2022/11/28 10:09:32;;;;;;;;;;;;;;;11.20;100.00;98431.44;4967069;28;19964;-58
2022/11/28 10:12:16;;;;;;;;;;;;;;;10.95;100.00;98425.66;4964644;28;19917;-57
2022/11/28 10:15:00;;;;;;;;;;;;;;;11.38;100.00;98423.78;4967667;28;20425;-58
2022/11/28 10:17:37;;;;;;;;;;;;;;;11.43;100.00;98422.69;4964092;28;19972;-57
2022/11/28 10:20:02;;;;;;;;;;;;;;;11.29;100.00;98420.72;4970856;28;19985;-58
2022/11/28 10:22:36;;;;;;;;;;;;;;;10.16;100.00;98440.88;4959915;28;20008;-59
2022/11/28 10:25:03;;;;;;;;;;;;;;;10.01;100.00;98450.88;4964340;28;19922;-59
2022/11/28 10:27:32;;;;;;;;;;;;;;;10.17;100.00;98461.41;4965552;28;19925;-58
2022/11/28 10:30:00;;;;;;;;;;;;;;;10.42;100.00;98463.91;4957167;28;19914;-58
2022/11/28 10:32:35;;;;;;;;;;;;;;;9.79;100.00;98468.84;4959530;28;19962;-58
2022/11/28 10:35:19;;;;;;;;;;;;;;;9.48;100.00;98471.69;4965691;28;19929;-58
2022/11/28 10:37:44;;;;;;;;;;;;;;;10.03;100.00;98491.97;4963341;28;20392;-58
2022/11/28 10:40:24;;;;;;;;;;;;;;;9.96;100.00;98481.06;4959545;28;19922;-58
2022/11/28 10:43:03;;;;;;;;;;;;;;;9.86;100.00;98492.59;4966301;28;19921;-58
2022/11/28 10:45:34;;;;;;;;;;;;;;;9.92;100.00;98489.81;4958477;28;20281;-58
2022/11/28 10:48:13;;;;;;;;;;;;;;;10.16;100.00;98492.34;4968482;28;19918;-58
2022/11/28 10:50:43;;;;;;;;;;;;;;;10.43;100.00;98486.16;4963080;28;19914;-58
2022/11/28 10:53:08;;;;;;;;;;;;;;;10.50;100.00;98485.91;4956382;28;19944;-58
2022/11/28 10:55:48;;;;;;;;;;;;;;;10.19;100.00;98481.94;4961520;28;19914;-58
2022/11/28 10:58:19;;;;;;;;;;;;;;;10.41;100.00;98494.84;4963867;28;19929;-58
2022/11/28 11:00:44;;;;;;;;;;;;;;;10.55;100.00;98496.84;4964703;28;19918;-58
2022/11/28 11:03:10;;;;;;;;;;;;;;;10.53;100.00;98496.09;4962410;28;19947;-58
2022/11/28 11:05:36;;;;;;;;;;;;;;;10.19;100.00;98492.22;4965956;28;19967;-58
2022/11/28 11:08:04;;;;;;;;;;;;;;;10.44;100.00;98492.13;4961918;28;19921;-59
2022/11/28 11:10:32;;;;;;;;;;;;;;;10.28;100.00;98484.13;4966316;28;19924;-58
2022/11/28 11:12:57;;;;;;;;;;;;;;;10.04;100.00;98485.94;4961777;28;19960;-58
2022/11/28 11:15:32;;;;;;;;;;;;;;;10.70;100.00;98498.81;4961985;28;19919;-59
2022/11/28 11:18:00;;;;;;;;;;;;;;;9.97;100.00;98492.22;4967606;28;19984;-58
2022/11/28 11:20:30;;;;;;;;;;;;;;;9.87;100.00;98496.84;4960703;28;19944;-58
2022/11/28 11:23:11;;;;;;;;;;;;;;;10.18;100.00;98499.09;4966688;28;19984;-58
2022/11/28 11:25:36;;;;;;;;;;;;;;;10.17;100.00;98504.31;4963943;28;19926;-58
2022/11/28 11:28:03;;;;;;;;;;;;;;;10.30;100.00;98495.25;4960807;28;19918;-58
2022/11/28 11:30:37;;;;;;;;;;;;;;;10.65;100.00;98500.72;4956724;28;19914;-58
2022/11/28 11:33:03;;;;;;;;;;;;;;;10.66;100.00;98499.84;4961799;28;19918;-58
2022/11/28 11:35:29;;;;;;;;;;;;;;;10.39;100.00;98494.88;4963602;28;19930;-58
2022/11/28 11:38:13;;;;;;;;;;;;;;;10.43;100.00;98496.44;4961400;28;19921;-59
2022/11/28 11:40:38;;;;;;;;;;;;;;;10.23;100.00;98504.06;4964804;28;19984;-58
2022/11/28 11:43:07;;;;;;;;;;;;;;;9.95;100.00;98515.41;4962092;28;19949;-58
2022/11/28 11:45:33;;;;;;;;;;;;;;;10.30;100.00;98508.13;4956367;28;19947;-58
2022/11/28 11:47:59;;;;;;;;;;;;;;;10.12;100.00;98506.22;4965613;28;19925;-58
2022/11/28 11:50:26;;;;;;;;;;;;;;;10.27;100.00;98505.63;4962856;28;19917;-58
2022/11/28 11:53:03;;;;;;;;;;;;;;;10.64;100.00;98499.06;4969092;28;19941;-58
2022/11/28 11:55:29;;;;;;;;;;;;;;;10.76;100.00;98495.97;4964977;28;20037;-58
2022/11/28 11:57:54;;;;;;;;;;;;;;;10.91;100.00;98501.41;4965113;28;20327;-58
2022/11/28 12:00:20;;;;;;;;;;;;;;;10.64;100.00;98484.44;4965093;28;20382;-58
2022/11/28 12:02:45;;;;;;;;;;;;;;;9.98;100.00;98499.84;4966969;28;19992;-58
2022/11/28 12:05:27;;;;;;;;;;;;;;;10.44;100.00;98492.97;4966763;28;20624;-58
2022/11/28 12:07:57;;;;;;;;;;;;;;;10.10;100.00;98497.72;4968132;28;20016;-58
2022/11/28 12:10:24;;;;;;;;;;;;;;;10.41;100.00;98503.38;4966698;28;19925;-58
2022/11/28 12:12:49;;;;;;;;;;;;;;;9.80;100.00;98501.38;4972652;28;19943;-58
2022/11/28 12:15:16;;;;;;;;;;;;;;;9.76;100.00;98510.13;4973433;28;20317;-58
2022/11/28 12:17:45;;;;;;;;;;;;;;;10.15;100.00;98521.53;4968027;28;19914;-58
2022/11/28 12:20:29;;;;;;;;;;;;;;;9.87;100.00;98520.00;4970845;28;19925;-59
2022/11/28 12:22:57;;;;;;;;;;;;;;;9.32;100.00;98524.53;4968642;28;19919;-58
2022/11/28 12:25:31;;;;;;;;;;;;;;;9.86;100.00;98535.50;4967566;28;19926;-58
2022/11/28 12:28:15;;;;;;;;;;;;;;;10.09;100.00;98538.06;4973509;28;20409;-58
2022/11/28 12:30:49;;;;;;;;;;;;;;;9.38;100.00;98530.31;4965794;28;19991;-58
2022/11/28 12:33:26;;;;;;;;;;;;;;;9.65;100.00;98548.25;4964786;28;20619;-58
2022/11/28 12:36:10;;;;;;;;;;;;;;;9.93;100.00;98542.91;4961987;28;19918;-57
2022/11/28 12:38:35;;;;;;;;;;;;;;;9.56;100.00;98539.09;4964723;28;19941;-58
2022/11/28 12:41:12;;;;;;;;;;;;;;;9.41;100.00;98537.91;4962866;28;19926;-58
2022/11/28 12:43:45;;;;;;;;;;;;;;;9.55;100.00;98534.84;4968758;28;19922;-58
2022/11/28 12:46:17;;;;;;;;;;;;;;;9.70;100.00;98540.34;4971110;28;19971;-58
2022/11/28 12:48:57;;;;;;;;;;;;;;;9.82;100.00;98535.59;4966162;28;20028;-59